Hoxeyville, Michigan
Current Conditions -  °F | °C
As of 9:55 AM on Saturday 01 Nov 2014 (Local Time) from KCAD Reporting Station
Clear Clear  
Wind Chill: 17°   Ceiling: Unl
Heat Index: 25°   Visibility: 10mi
Dew Point: 17°   Wind: 7mph
Humidity: 71%   Direction: 20°NNE
Pressure: 30.38"   Gusts: NA
Location:  44.2433°N, 85.5328°W
Report Text: KCAD 011355Z AUTO 02006KT 10SM CLR M03/M08 A3038 RMK AO2 T10381084
Loading
Personal Weather Stations






























Interactive Weather Map
Tropical Storm Tracking
New forecast layout! Learn more

10-Day Weather Forecast

Advertisements
Track Severe Weather on mobile